Time;durP1;ratioP1;P1;durP2;ratioP2;P2;SDS_P1;SDS_P2;PMS_P1;PMS_P2;Temp;Humidity;BMP_temperature;BMP_pressure;BME280_temperature;BME280_humidity;BME280_pressure;Samples;Min_cycle;Max_cycle;Signal;HPM_P1;HPM_P2
2023/10/30 00:00:09;;;;;;;12.15;1.42;;;10.70;97.80;;;;;;6223369;28;20050;-90
2023/10/30 00:03:11;;;;;;;16.33;1.73;;;10.70;97.80;;;;;;6225671;28;20140;-89
2023/10/30 00:06:13;;;;;;;14.07;2.60;;;10.80;97.90;;;;;;6225576;28;20069;-89
2023/10/30 00:09:17;;;;;;;7.80;1.30;;;10.80;97.90;;;;;;6225697;28;20058;-88
2023/10/30 00:12:19;;;;;;;10.98;1.55;;;10.60;97.80;;;;;;6224826;28;20054;-88
2023/10/30 00:15:23;;;;;;;12.10;1.60;;;10.70;98.10;;;;;;6224242;28;20193;-87
2023/10/30 00:18:24;;;;;;;14.25;1.98;;;10.60;98.40;;;;;;6224826;28;20060;-88
2023/10/30 00:21:26;;;;;;;16.45;1.98;;;10.60;97.90;;;;;;6224271;28;20505;-89
2023/10/30 00:24:29;;;;;;;9.15;1.67;;;10.50;98.40;;;;;;6224607;28;20053;-87
2023/10/30 00:27:31;;;;;;;14.43;1.88;;;10.60;98.50;;;;;;6224034;28;20061;-89
2023/10/30 00:30:33;;;;;;;17.63;2.03;;;10.60;98.50;;;;;;6222957;28;20053;-89
2023/10/30 00:33:35;;;;;;;12.68;1.60;;;10.60;98.30;;;;;;6207685;28;20505;-90
2023/10/30 00:36:36;;;;;;;12.48;1.85;;;10.70;98.10;;;;;;6240789;28;20129;-90
2023/10/30 00:39:38;;;;;;;13.20;1.90;;;10.60;98.10;;;;;;6224879;28;20508;-90
2023/10/30 00:42:40;;;;;;;13.93;2.30;;;10.60;98.20;;;;;;6224846;28;20054;-90
2023/10/30 00:45:42;;;;;;;10.13;1.90;;;10.70;98.10;;;;;;6224267;28;20140;-88
2023/10/30 00:48:44;;;;;;;15.13;2.33;;;10.60;98.60;;;;;;6177601;28;20523;-89
2023/10/30 00:51:45;;;;;;;19.25;2.65;;;10.60;98.50;;;;;;6239870;28;20065;-90
2023/10/30 00:54:47;;;;;;;19.10;2.78;;;10.60;98.60;;;;;;6224013;28;20417;-89
2023/10/30 00:57:49;;;;;;;15.10;2.53;;;10.60;98.60;;;;;;6222553;28;20049;-89
2023/10/30 01:00:51;;;;;;;17.50;2.38;;;10.60;98.60;;;;;;6221983;28;20053;-89
2023/10/30 01:03:52;;;;;;;22.50;2.78;;;10.60;98.90;;;;;;6175829;28;20057;-89
2023/10/30 01:06:54;;;;;;;22.17;2.40;;;10.60;98.70;;;;;;6239331;28;20117;-88
2023/10/30 01:09:56;;;;;;;19.10;2.72;;;10.60;98.80;;;;;;6223877;28;20046;-88
2023/10/30 01:12:57;;;;;;;21.20;2.80;;;10.60;99.00;;;;;;6223315;28;20092;-88
2023/10/30 01:15:59;;;;;;;16.90;2.85;;;10.70;99.20;;;;;;6210540;28;20081;-88
2023/10/30 01:19:01;;;;;;;16.98;2.78;;;10.70;99.00;;;;;;6221261;28;20084;-88
2023/10/30 01:22:02;;;;;;;16.38;2.70;;;10.70;99.10;;;;;;6219987;28;20726;-88
2023/10/30 01:25:04;;;;;;;16.02;2.40;;;10.60;99.20;;;;;;6220911;28;20061;-89
2023/10/30 01:28:06;;;;;;;19.40;2.72;;;10.50;99.10;;;;;;6221292;28;20057;-89
2023/10/30 01:31:07;;;;;;;13.55;2.58;;;10.50;99.20;;;;;;6221525;28;20497;-87
2023/10/30 01:34:09;;;;;;;12.25;2.08;;;10.50;99.50;;;;;;6204687;28;20050;-88
2023/10/30 01:37:11;;;;;;;19.27;2.63;;;10.50;99.30;;;;;;6204697;28;20062;-87
2023/10/30 01:40:13;;;;;;;18.33;2.75;;;10.50;99.30;;;;;;6204996;28;20494;-89
2023/10/30 01:43:14;;;;;;;16.08;2.55;;;10.50;99.40;;;;;;6219445;28;20053;-88
2023/10/30 01:46:16;;;;;;;20.58;2.60;;;10.50;99.40;;;;;;6213203;28;20058;-89
2023/10/30 01:49:18;;;;;;;19.45;2.58;;;10.40;99.40;;;;;;6239608;28;20547;-89
2023/10/30 01:52:19;;;;;;;22.42;3.13;;;10.40;99.30;;;;;;6223594;28;20361;-88
2023/10/30 01:55:21;;;;;;;13.45;2.80;;;10.40;99.50;;;;;;6220908;28;20145;-88
2023/10/30 01:58:23;;;;;;;18.23;3.00;;;10.60;99.70;;;;;;6222616;28;20054;-88
2023/10/30 02:01:24;;;;;;;16.25;2.47;;;10.60;99.70;;;;;;6228739;28;20054;-88
2023/10/30 02:04:26;;;;;;;18.20;2.65;;;10.60;99.30;;;;;;6180517;28;20051;-89
2023/10/30 02:07:28;;;;;;;20.50;2.70;;;10.60;99.30;;;;;;6244099;28;20046;-89
2023/10/30 02:10:30;;;;;;;18.52;2.75;;;10.50;99.50;;;;;;6227738;28;20498;-88
2023/10/30 02:13:32;;;;;;;19.08;3.05;;;10.50;99.70;;;;;;6224373;28;20066;-89
2023/10/30 02:16:33;;;;;;;14.15;2.40;;;10.50;99.40;;;;;;6205060;28;20061;-89
2023/10/30 02:19:35;;;;;;;15.65;2.63;;;10.50;99.50;;;;;;6244266;28;20081;-89
2023/10/30 02:22:37;;;;;;;15.77;2.88;;;10.60;99.30;;;;;;6229926;28;20057;-89
2023/10/30 02:25:38;;;;;;;26.63;3.40;;;10.50;99.20;;;;;;6228512;28;20049;-89
2023/10/30 02:28:40;;;;;;;14.02;2.38;;;10.50;99.30;;;;;;6224517;28;20061;-87
2023/10/30 02:31:42;;;;;;;25.15;2.53;;;10.60;99.30;;;;;;6227395;28;20437;-89
2023/10/30 02:34:44;;;;;;;17.17;2.78;;;10.60;99.30;;;;;;6227133;28;20072;-88
2023/10/30 02:37:45;;;;;;;17.85;2.47;;;10.60;99.40;;;;;;6226274;28;20057;-87
2023/10/30 02:40:47;;;;;;;19.63;2.80;;;10.60;99.10;;;;;;6225992;28;20406;-87
2023/10/30 02:43:49;;;;;;;17.92;2.78;;;10.60;99.40;;;;;;6223112;28;20456;-88
2023/10/30 02:46:50;;;;;;;17.98;2.88;;;10.50;99.30;;;;;;6226774;28;20046;-88
2023/10/30 02:49:52;;;;;;;21.02;2.67;;;10.60;99.80;;;;;;6226839;28;20061;-88
2023/10/30 02:52:53;;;;;;;19.77;3.00;;;10.70;99.60;;;;;;6226023;28;20058;-87
2023/10/30 02:55:55;;;;;;;16.55;2.72;;;10.70;99.80;;;;;;6226186;28;20053;-85
2023/10/30 02:58:57;;;;;;;15.68;3.13;;;10.70;99.60;;;;;;6216547;28;20058;-87
2023/10/30 03:01:59;;;;;;;16.80;2.75;;;10.70;99.70;;;;;;6200732;28;20058;-86
2023/10/30 03:05:00;;;;;;;23.42;3.15;;;10.70;99.90;;;;;;6199910;28;20056;-87
2023/10/30 03:08:02;;;;;;;19.98;2.67;;;10.80;99.80;;;;;;6200627;28;20074;-85
2023/10/30 03:11:04;;;;;;;14.10;2.50;;;10.80;99.90;;;;;;6225011;28;20061;-86
2023/10/30 03:14:06;;;;;;;15.35;2.45;;;10.80;99.60;;;;;;6225529;28;20057;-88
2023/10/30 03:17:07;;;;;;;14.73;2.17;;;10.90;99.60;;;;;;6225967;28;20061;-89
2023/10/30 03:20:09;;;;;;;18.52;2.60;;;11.00;99.60;;;;;;6225791;28;20053;-89
2023/10/30 03:23:11;;;;;;;21.65;2.63;;;11.00;99.40;;;;;;6227348;28;20505;-89
2023/10/30 03:26:12;;;;;;;11.07;2.03;;;11.00;99.20;;;;;;6226157;28;20058;-88
2023/10/30 03:29:14;;;;;;;21.00;2.13;;;10.90;99.10;;;;;;6225510;28;20085;-89
2023/10/30 03:32:16;;;;;;;12.75;1.88;;;10.90;99.10;;;;;;6225089;28;20049;-89
2023/10/30 03:35:17;;;;;;;13.90;2.05;;;10.90;99.30;;;;;;6225677;28;20050;-90
2023/10/30 03:38:19;;;;;;;21.30;3.35;;;10.80;99.10;;;;;;6212892;28;20054;-89
2023/10/30 03:41:21;;;;;;;24.65;2.35;;;10.70;99.10;;;;;;6242077;28;20413;-89
2023/10/30 03:44:26;;;;;;;17.63;2.03;;;10.80;99.10;;;;;;6223914;28;20413;-90
2023/10/30 03:47:27;;;;;;;14.40;1.85;;;10.80;98.80;;;;;;6225895;28;20057;-90
2023/10/30 03:50:29;;;;;;;13.85;2.10;;;10.70;98.80;;;;;;6227669;28;20054;-90
2023/10/30 03:53:31;;;;;;;26.10;3.67;;;10.70;98.70;;;;;;6226013;28;20489;-89
2023/10/30 03:56:32;;;;;;;14.13;2.60;;;10.70;99.00;;;;;;6226667;28;20088;-90
2023/10/30 03:59:34;;;;;;;15.27;2.20;;;10.60;99.00;;;;;;6225331;28;20064;-90
2023/10/30 04:02:35;;;;;;;16.70;2.38;;;10.60;99.10;;;;;;6224231;28;20046;-88
2023/10/30 04:05:38;;;;;;;16.13;2.63;;;10.60;99.00;;;;;;6219785;28;20058;-90
2023/10/30 04:08:39;;;;;;;16.30;2.97;;;10.50;99.50;;;;;;6201802;28;20050;-93
2023/10/30 04:11:41;;;;;;;19.15;2.65;;;10.50;99.50;;;;;;6225107;28;20049;-92
2023/10/30 04:14:42;;;;;;;20.65;2.70;;;10.40;99.60;;;;;;6222677;28;20061;-91
2023/10/30 04:17:44;;;;;;;17.40;2.97;;;10.40;99.80;;;;;;6228719;28;20054;-91
2023/10/30 04:20:46;;;;;;;26.65;3.25;;;10.40;99.70;;;;;;6224031;28;20141;-91
2023/10/30 04:23:48;;;;;;;16.85;3.10;;;10.40;99.70;;;;;;6241234;28;20050;-91
2023/10/30 04:26:49;;;;;;;19.73;3.08;;;10.40;99.80;;;;;;6225279;28;20054;-91
2023/10/30 04:29:51;;;;;;;18.15;2.58;;;10.50;99.90;;;;;;6221100;28;20057;-92
2023/10/30 04:32:53;;;;;;;15.85;2.63;;;10.40;99.80;;;;;;6222334;28;20060;-90
2023/10/30 04:35:54;;;;;;;15.98;2.42;;;10.30;99.90;;;;;;6221928;28;20425;-91
2023/10/30 04:38:56;;;;;;;18.42;2.90;;;10.40;99.90;;;;;;6219187;28;20081;-90
2023/10/30 04:41:58;;;;;;;15.85;2.70;;;10.40;99.90;;;;;;6227845;28;20050;-91
2023/10/30 04:44:59;;;;;;;27.20;2.72;;;10.40;99.90;;;;;;6223762;28;20058;-91
2023/10/30 04:48:01;;;;;;;20.25;2.88;;;10.30;99.80;;;;;;6224735;28;20359;-91
2023/10/30 04:51:03;;;;;;;25.40;2.95;;;10.20;99.90;;;;;;6225010;28;20421;-91
2023/10/30 04:54:05;;;;;;;22.27;3.03;;;10.20;99.90;;;;;;6225061;28;20049;-91
2023/10/30 04:57:06;;;;;;;20.45;2.78;;;10.20;99.90;;;;;;6217628;28;20049;-91
2023/10/30 05:00:08;;;;;;;22.42;2.95;;;10.20;99.90;;;;;;6206956;28;20061;-92
2023/10/30 05:03:10;;;;;;;19.50;2.83;;;10.30;99.90;;;;;;6239208;28;20056;-92
2023/10/30 05:06:11;;;;;;;19.08;3.13;;;10.20;99.90;;;;;;6223052;28;20390;-91
2023/10/30 05:09:13;;;;;;;14.13;2.33;;;10.20;99.90;;;;;;6224373;28;20133;-92
2023/10/30 05:12:15;;;;;;;20.17;3.22;;;10.10;99.90;;;;;;6224379;28;20057;-91
2023/10/30 05:15:17;;;;;;;23.98;2.95;;;10.10;99.90;;;;;;6223633;28;20129;-90
2023/10/30 05:18:22;;;;;;;18.45;3.33;;;10.10;99.90;;;;;;6208898;28;20062;-91
2023/10/30 05:21:23;;;;;;;16.08;2.70;;;10.10;99.90;;;;;;6225519;28;20054;-92
2023/10/30 05:24:25;;;;;;;25.80;3.60;;;10.20;99.90;;;;;;6223719;28;20544;-91
2023/10/30 05:27:27;;;;;;;23.05;2.90;;;10.20;99.90;;;;;;6213431;28;20533;-92
2023/10/30 05:30:29;;;;;;;22.05;2.97;;;10.30;99.90;;;;;;6250252;28;20113;-91
2023/10/30 05:33:30;;;;;;;20.02;3.05;;;10.30;99.90;;;;;;6225405;28;20143;-92
2023/10/30 05:36:32;;;;;;;22.23;3.08;;;10.30;99.90;;;;;;6226887;28;20056;-91
2023/10/30 05:39:34;;;;;;;21.30;2.55;;;10.30;99.90;;;;;;6225079;28;20412;-92
2023/10/30 05:42:36;;;;;;;18.33;2.45;;;10.20;99.90;;;;;;6224121;28;20057;-91
2023/10/30 05:45:38;;;;;;;18.45;2.80;;;10.20;99.90;;;;;;6219687;28;20062;-92
2023/10/30 05:48:40;;;;;;;22.30;2.65;;;10.30;99.90;;;;;;6223012;28;20050;-91
2023/10/30 05:51:42;;;;;;;23.75;2.67;;;10.20;99.90;;;;;;6209772;28;20065;-93
2023/10/30 05:54:43;;;;;;;21.65;2.70;;;10.30;99.90;;;;;;6223861;28;20050;-93
2023/10/30 05:57:45;;;;;;;23.77;3.30;;;10.30;99.90;;;;;;6223983;28;20062;-92
2023/10/30 06:00:47;;;;;;;17.25;2.92;;;10.20;99.90;;;;;;6219800;28;20046;-92
2023/10/30 06:03:49;;;;;;;21.25;2.50;;;10.20;99.90;;;;;;6223079;28;20058;-92
2023/10/30 06:06:51;;;;;;;20.38;2.58;;;10.10;99.90;;;;;;6208236;28;20061;-93
2023/10/30 06:09:53;;;;;;;22.95;3.47;;;10.10;99.90;;;;;;6239873;28;20057;-93
2023/10/30 06:12:55;;;;;;;18.73;2.63;;;10.10;99.90;;;;;;6222922;28;20081;-92
2023/10/30 06:15:57;;;;;;;16.92;2.00;;;10.10;99.90;;;;;;6222205;28;20054;-91
2023/10/30 06:18:59;;;;;;;13.20;2.38;;;10.00;99.90;;;;;;6207519;28;20102;-92
2023/10/30 06:22:00;;;;;;;14.48;2.38;;;9.90;99.90;;;;;;6190889;28;20055;-90
2023/10/30 06:25:02;;;;;;;17.15;2.70;;;9.80;99.90;;;;;;6222580;28;20104;-92
2023/10/30 06:28:04;;;;;;;18.15;3.03;;;9.70;99.90;;;;;;6222902;28;20064;-93
2023/10/30 06:31:05;;;;;;;15.32;2.58;;;9.70;99.90;;;;;;6188344;28;20058;-87
2023/10/30 06:34:08;;;;;;;19.98;2.95;;;9.60;99.90;;;;;;6225608;28;20049;-88
2023/10/30 06:37:10;;;;;;;13.52;2.30;;;9.60;99.90;;;;;;6206880;28;20042;-95
2023/10/30 06:40:12;;;;;;;21.05;3.10;;;9.50;99.90;;;;;;6206336;28;20058;-94
2023/10/30 06:43:13;;;;;;;22.88;3.63;;;9.40;99.90;;;;;;6208522;28;20054;-95
2023/10/30 06:46:15;;;;;;;27.25;3.42;;;9.40;99.90;;;;;;6231166;28;20050;-95
2023/10/30 06:49:20;;;;;;;17.98;2.70;;;9.40;99.90;;;;;;6241700;28;20357;-95
2023/10/30 06:52:22;;;;;;;19.45;2.75;;;9.50;99.90;;;;;;6229387;28;20053;-95
2023/10/30 06:55:24;;;;;;;17.52;2.40;;;9.60;99.90;;;;;;6228002;28;20065;-95
2023/10/30 06:58:26;;;;;;;16.13;2.47;;;9.60;99.90;;;;;;6226099;28;20642;-94
2023/10/30 07:01:29;;;;;;;12.25;2.28;;;9.60;99.90;;;;;;6236128;28;20070;-95
2023/10/30 07:04:31;;;;;;;18.73;2.92;;;9.60;99.90;;;;;;6232720;28;20137;-95
2023/10/30 07:07:34;;;;;;;20.42;2.88;;;9.60;99.90;;;;;;6237732;28;20547;-94
2023/10/30 07:10:35;;;;;;;22.60;3.38;;;9.80;99.90;;;;;;6230918;28;20062;-93
2023/10/30 07:13:37;;;;;;;21.80;2.75;;;10.10;99.90;;;;;;6225365;28;20065;-92
2023/10/30 07:16:40;;;;;;;16.70;2.40;;;10.30;99.90;;;;;;6228263;28;20060;-92
2023/10/30 07:20:03;;;;;;;15.85;2.60;;;10.40;99.90;;;;;;6192839;28;20090;-92
2023/10/30 07:23:05;;;;;;;12.15;2.28;;;10.50;99.90;;;;;;6243518;28;20057;-90
2023/10/30 07:26:07;;;;;;;10.63;1.88;;;10.50;99.90;;;;;;6230328;28;20054;-92
2023/10/30 07:29:08;;;;;;;13.73;2.10;;;10.60;99.90;;;;;;6227717;28;20367;-91
2023/10/30 07:32:10;;;;;;;11.07;2.00;;;10.70;99.90;;;;;;6228887;28;20061;-94
2023/10/30 07:35:12;;;;;;;12.15;2.20;;;10.70;99.90;;;;;;6230464;28;20054;-94
2023/10/30 07:38:15;;;;;;;12.38;1.80;;;10.80;99.90;;;;;;6230271;28;20072;-92
2023/10/30 07:41:17;;;;;;;13.98;1.75;;;10.90;99.90;;;;;;6209341;28;20094;-94
2023/10/30 07:44:18;;;;;;;11.15;1.63;;;11.00;99.90;;;;;;6240468;28;20073;-93
2023/10/30 07:47:20;;;;;;;8.45;1.58;;;11.00;99.90;;;;;;6227449;28;20050;-94
2023/10/30 07:50:42;;;;;;;9.93;1.80;;;11.20;99.90;;;;;;6199805;28;20054;-95
2023/10/30 07:53:44;;;;;;;8.32;1.60;;;11.20;99.90;;;;;;6264452;28;20046;-94
2023/10/30 07:56:46;;;;;;;10.43;2.00;;;11.30;99.90;;;;;;6233029;28;20658;-93
2023/10/30 07:59:49;;;;;;;13.63;1.92;;;11.40;99.80;;;;;;6224284;28;20512;-90
2023/10/30 08:02:50;;;;;;;13.48;1.92;;;11.50;99.90;;;;;;6229822;28;20054;-93
2023/10/30 08:05:53;;;;;;;13.80;1.60;;;11.60;99.80;;;;;;6236433;28;20077;-94
2023/10/30 08:09:00;;;;;;;14.65;2.10;;;11.60;99.80;;;;;;6181823;28;20057;-95
2023/10/30 08:12:02;;;;;;;14.23;1.83;;;11.70;99.90;;;;;;6230147;28;20089;-94
2023/10/30 08:15:06;;;;;;;9.82;2.00;;;11.80;99.90;;;;;;6215249;28;20065;-89
2023/10/30 08:18:08;;;;;;;12.85;2.20;;;11.90;99.80;;;;;;6207259;28;20089;-89
2023/10/30 08:21:10;;;;;;;11.35;2.45;;;12.00;99.90;;;;;;6222257;28;20141;-87
2023/10/30 08:24:12;;;;;;;14.15;2.08;;;12.00;99.90;;;;;;6228679;28;20061;-93
2023/10/30 08:27:14;;;;;;;12.38;2.22;;;12.00;99.50;;;;;;6229262;28;20054;-92
2023/10/30 08:30:16;;;;;;;9.18;1.67;;;12.00;99.20;;;;;;6225176;28;20732;-92
2023/10/30 08:33:18;;;;;;;9.35;2.83;;;12.00;99.00;;;;;;6224903;28;20061;-84
2023/10/30 08:36:20;;;;;;;13.95;1.98;;;12.10;99.10;;;;;;6223001;28;20410;-91
2023/10/30 08:39:21;;;;;;;9.90;1.65;;;12.10;98.90;;;;;;6224478;28;20235;-89
2023/10/30 08:42:23;;;;;;;12.93;2.10;;;12.10;98.20;;;;;;6229066;28;20054;-90
2023/10/30 08:45:26;;;;;;;14.05;1.65;;;12.10;98.10;;;;;;6228925;28;20084;-89
2023/10/30 08:48:28;;;;;;;11.82;1.85;;;12.10;98.30;;;;;;6225455;28;20104;-87
2023/10/30 08:51:29;;;;;;;10.18;1.60;;;12.10;98.20;;;;;;6223213;28;20570;-87
2023/10/30 08:54:31;;;;;;;12.02;2.38;;;12.00;97.70;;;;;;6227045;28;20064;-93
2023/10/30 08:57:34;;;;;;;13.52;1.98;;;12.00;97.50;;;;;;6225704;28;20046;-91
2023/10/30 09:00:37;;;;;;;5.80;1.63;;;12.00;96.30;;;;;;6187262;28;20059;-88
2023/10/30 09:03:39;;;;;;;14.90;1.83;;;12.00;94.90;;;;;;6204995;28;20133;-90
2023/10/30 09:06:42;;;;;;;7.80;1.45;;;12.00;94.80;;;;;;6190333;28;20057;-92
2023/10/30 09:09:44;;;;;;;5.00;1.13;;;12.00;95.20;;;;;;6221441;28;20046;-90
2023/10/30 09:12:46;;;;;;;5.55;0.80;;;11.90;93.80;;;;;;6175424;28;20065;-92
2023/10/30 09:15:48;;;;;;;11.15;1.05;;;11.90;92.80;;;;;;6202395;28;20061;-80
2023/10/30 09:18:49;;;;;;;3.40;0.85;;;11.80;92.70;;;;;;6219355;28;20069;-86
2023/10/30 09:21:52;;;;;;;4.43;0.90;;;11.80;93.60;;;;;;6223739;28;20052;-88
2023/10/30 09:24:57;;;;;;;5.40;1.00;;;11.70;92.90;;;;;;6189490;28;20426;-87
2023/10/30 09:27:58;;;;;;;6.22;0.88;;;11.70;94.00;;;;;;6197168;28;20058;-90
2023/10/30 09:31:06;;;;;;;6.35;0.90;;;11.70;93.80;;;;;;6222693;28;20069;-87
2023/10/30 09:34:08;;;;;;;4.80;1.73;;;11.70;93.10;;;;;;6222050;28;20064;-94
2023/10/30 09:37:11;;;;;;;7.72;0.82;;;11.60;93.50;;;;;;6228177;28;20057;-87
2023/10/30 09:40:13;;;;;;;5.13;1.13;;;11.50;92.40;;;;;;6222923;28;20064;-87
2023/10/30 09:43:15;;;;;;;3.33;0.68;;;11.40;92.60;;;;;;6222048;28;20057;-90
2023/10/30 09:46:18;;;;;;;5.32;0.98;;;11.40;93.10;;;;;;6229083;28;20117;-90
2023/10/30 09:49:20;;;;;;;5.60;1.05;;;11.30;93.70;;;;;;6178948;28;20375;-91
2023/10/30 09:52:22;;;;;;;9.90;1.30;;;11.30;94.30;;;;;;6241737;28;20060;-92
2023/10/30 09:55:24;;;;;;;10.25;1.70;;;11.20;95.40;;;;;;6229687;28;20049;-91
2023/10/30 09:58:26;;;;;;;8.13;1.40;;;11.10;96.40;;;;;;6227438;28;20540;-92
2023/10/30 10:01:28;;;;;;;6.05;1.38;;;11.00;97.10;;;;;;6230220;28;20057;-91
2023/10/30 10:04:31;;;;;;;6.93;1.20;;;11.00;97.70;;;;;;6228222;28;20076;-93
2023/10/30 10:07:33;;;;;;;10.57;1.70;;;10.90;97.60;;;;;;6226733;28;20060;-90
2023/10/30 10:10:34;;;;;;;5.53;1.30;;;11.00;97.50;;;;;;6226220;28;20420;-90
2023/10/30 10:13:37;;;;;;;8.23;1.50;;;11.00;97.80;;;;;;6221132;28;20064;-90
2023/10/30 10:16:58;;;;;;;7.20;1.27;;;11.10;97.80;;;;;;6197740;28;20063;-91
2023/10/30 10:20:03;;;;;;;8.43;1.30;;;11.20;98.00;;;;;;6231070;28;20049;-90
2023/10/30 10:23:06;;;;;;;6.85;1.15;;;11.30;97.30;;;;;;6233602;28;20052;-91
2023/10/30 10:26:14;;;;;;;8.05;1.65;;;11.30;97.50;;;;;;6234047;28;20057;-93
2023/10/30 10:29:16;;;;;;;7.55;1.10;;;11.30;98.00;;;;;;6230406;28;20520;-92
2023/10/30 10:32:17;;;;;;;5.43;0.98;;;11.30;98.00;;;;;;6237611;28;20214;-92
2023/10/30 10:35:19;;;;;;;9.00;1.25;;;11.40;98.10;;;;;;6241613;28;20050;-92
2023/10/30 10:38:21;;;;;;;9.05;1.20;;;11.50;98.50;;;;;;6238479;28;20045;-93
2023/10/30 10:41:23;;;;;;;4.63;0.90;;;11.50;98.70;;;;;;6240359;28;20054;-94
2023/10/30 10:44:24;;;;;;;7.97;1.35;;;11.40;98.00;;;;;;6235393;28;20421;-93
2023/10/30 10:47:26;;;;;;;6.80;1.20;;;11.50;98.40;;;;;;6238728;28;20121;-93
2023/10/30 10:50:28;;;;;;;5.93;1.05;;;11.40;97.80;;;;;;6240157;28;20064;-92
2023/10/30 10:53:30;;;;;;;8.98;1.17;;;11.40;97.50;;;;;;6248054;28;20052;-93
2023/10/30 10:56:32;;;;;;;2.45;0.70;;;11.40;98.00;;;;;;6243619;28;20062;-92
2023/10/30 10:59:33;;;;;;;5.93;1.08;;;11.40;97.10;;;;;;6244830;28;20141;-92
2023/10/30 11:02:37;;;;;;;10.52;2.17;;;11.40;97.40;;;;;;6243905;28;20077;-91
2023/10/30 11:05:39;;;;;;;4.40;0.93;;;11.40;97.10;;;;;;6249911;28;20081;-93
2023/10/30 11:08:41;;;;;;;8.20;1.48;;;11.50;97.30;;;;;;6240187;28;20052;-92
2023/10/30 11:11:43;;;;;;;5.03;0.80;;;11.50;96.80;;;;;;6235615;28;20064;-92
2023/10/30 11:14:45;;;;;;;3.72;0.70;;;11.60;97.40;;;;;;6233052;28;20073;-91
2023/10/30 11:17:46;;;;;;;3.47;0.80;;;11.60;98.00;;;;;;6245577;28;20414;-92
2023/10/30 11:20:48;;;;;;;4.88;0.90;;;11.80;98.10;;;;;;6245247;28;20064;-92
2023/10/30 11:23:52;;;;;;;8.52;0.90;;;12.00;97.80;;;;;;6249057;28;20054;-90
2023/10/30 11:26:54;;;;;;;5.78;0.88;;;12.00;98.00;;;;;;6248052;28;20042;-93
2023/10/30 11:29:56;;;;;;;5.15;0.70;;;12.10;98.10;;;;;;6244373;28;20413;-90
2023/10/30 11:32:58;;;;;;;5.32;0.90;;;12.30;98.10;;;;;;6242136;28;20049;-89
2023/10/30 11:35:59;;;;;;;3.88;0.60;;;12.40;98.20;;;;;;6242575;28;20054;-90
2023/10/30 11:39:02;;;;;;;5.40;1.00;;;12.40;96.50;;;;;;6245632;28;20061;-91
2023/10/30 11:42:04;;;;;;;2.38;0.60;;;12.50;97.00;;;;;;6249629;28;20046;-89
2023/10/30 11:45:06;;;;;;;4.30;0.70;;;12.70;97.60;;;;;;6247951;28;20117;-89
2023/10/30 11:48:08;;;;;;;2.90;0.85;;;12.70;94.90;;;;;;6252542;28;20040;-92
2023/10/30 11:51:10;;;;;;;5.82;1.60;;;12.70;96.20;;;;;;6251038;28;20076;-90
2023/10/30 11:54:11;;;;;;;3.05;0.88;;;12.80;97.60;;;;;;6244523;28;20050;-90
2023/10/30 11:57:13;;;;;;;5.97;1.00;;;12.80;97.20;;;;;;6246773;28;20049;-90
2023/10/30 12:00:15;;;;;;;4.65;0.90;;;12.90;97.60;;;;;;6245875;28;20057;-89
2023/10/30 12:03:17;;;;;;;6.13;1.00;;;13.00;98.70;;;;;;6250035;28;20069;-90
2023/10/30 12:06:19;;;;;;;3.85;1.40;;;13.10;98.30;;;;;;6249120;28;20041;-91
2023/10/30 12:09:20;;;;;;;4.18;1.10;;;13.20;97.40;;;;;;6248070;28;20057;-91
2023/10/30 12:12:22;;;;;;;5.18;1.00;;;13.30;98.10;;;;;;6248973;28;20054;-90
2023/10/30 12:15:24;;;;;;;4.72;0.90;;;13.20;96.50;;;;;;6237373;28;20085;-92
2023/10/30 12:18:25;;;;;;;5.95;1.00;;;13.20;95.00;;;;;;6227365;28;20069;-92
2023/10/30 12:21:27;;;;;;;6.40;1.08;;;13.30;97.20;;;;;;6252193;28;20046;-92
2023/10/30 12:24:29;;;;;;;6.80;1.30;;;13.40;97.20;;;;;;6239589;28;20132;-92
2023/10/30 12:27:31;;;;;;;6.95;1.00;;;13.70;96.90;;;;;;6228388;28;20505;-92
2023/10/30 12:30:34;;;;;;;7.35;1.20;;;14.50;98.50;;;;;;6238760;28;20057;-81
2023/10/30 12:33:39;;;;;;;10.98;1.90;;;15.30;94.60;;;;;;6219071;28;20145;-84
2023/10/30 12:36:40;;;;;;;6.50;1.40;;;16.30;92.60;;;;;;6198995;28;20057;-91
2023/10/30 12:39:45;;;;;;;5.78;1.00;;;16.80;92.40;;;;;;6228363;28;20108;-95
2023/10/30 12:42:47;;;;;;;4.45;1.13;;;17.00;58.90;;;;;;6226236;28;20131;-88
2023/10/30 12:45:49;;;;;;;7.32;1.10;;;17.20;88.50;;;;;;6219531;28;20049;-85
2023/10/30 12:48:51;;;;;;;4.68;1.05;;;17.70;92.90;;;;;;6171886;28;20061;-86
2023/10/30 12:51:53;;;;;;;7.60;1.25;;;18.20;48.40;;;;;;6222650;28;20056;-92
2023/10/30 12:54:54;;;;;;;4.07;1.15;;;18.10;73.50;;;;;;6227407;28;20054;-93
2023/10/30 12:57:56;;;;;;;3.33;0.88;;;18.10;29.80;;;;;;6225594;28;20088;-91
2023/10/30 13:01:03;;;;;;;6.00;1.30;;;18.20;33.40;;;;;;6222768;28;20046;-89
2023/10/30 13:04:07;;;;;;;6.13;1.27;;;18.20;31.50;;;;;;6192113;28;20046;-91
2023/10/30 13:07:09;;;;;;;8.57;1.40;;;18.40;38.90;;;;;;6224440;28;20513;-88
2023/10/30 13:10:11;;;;;;;6.72;1.40;;;18.60;16.60;;;;;;6226328;28;20049;-90
2023/10/30 13:13:17;;;;;;;5.32;1.40;;;19.00;69.90;;;;;;6224881;28;20517;-90
2023/10/30 13:16:19;;;;;;;7.47;1.50;;;18.20;23.20;;;;;;6222785;28;20080;-89
2023/10/30 13:19:21;;;;;;;7.43;1.92;;;17.60;36.00;;;;;;6222228;28;20061;-87
2023/10/30 13:22:23;;;;;;;8.65;1.50;;;16.70;34.20;;;;;;6224686;28;20069;-85
2023/10/30 13:25:25;;;;;;;8.15;1.63;;;16.20;50.00;;;;;;6223507;28;20049;-91
2023/10/30 13:28:27;;;;;;;10.77;2.08;;;15.90;78.40;;;;;;6219615;28;20077;-87
2023/10/30 13:31:28;;;;;;;10.27;2.03;;;16.00;76.20;;;;;;6221034;28;20057;-85
2023/10/30 13:34:30;;;;;;;8.30;1.70;;;16.40;71.60;;;;;;6224056;28;20061;-89
2023/10/30 13:37:32;;;;;;;10.02;1.80;;;16.40;77.50;;;;;;6233429;28;20093;-94
2023/10/30 13:40:34;;;;;;;10.40;1.92;;;16.10;77.40;;;;;;6230858;28;20409;-89
2023/10/30 13:43:36;;;;;;;6.13;1.48;;;15.70;77.70;;;;;;6222065;28;20042;-84
2023/10/30 13:46:37;;;;;;;7.63;1.63;;;15.30;75.30;;;;;;6231516;28;20417;-87
2023/10/30 13:49:39;;;;;;;10.27;1.85;;;15.00;85.00;;;;;;6224424;28;20137;-90
2023/10/30 13:52:41;;;;;;;12.23;2.45;;;14.80;88.40;;;;;;6225652;28;20046;-83
2023/10/30 13:55:43;;;;;;;7.25;1.70;;;14.60;90.60;;;;;;6230837;28;20054;-93
2023/10/30 13:58:46;;;;;;;12.77;1.92;;;14.40;89.50;;;;;;6228540;28;20482;-87
2023/10/30 14:01:49;;;;;;;7.00;1.50;;;14.40;90.10;;;;;;6230798;28;20057;-85
2023/10/30 14:04:51;;;;;;;9.80;1.67;;;14.40;92.10;;;;;;6203559;28;20110;-90
2023/10/30 14:07:53;;;;;;;11.50;1.80;;;14.40;92.00;;;;;;6196771;28;20485;-83
2023/10/30 14:10:55;;;;;;;7.32;1.73;;;14.40;92.10;;;;;;6200306;28;20053;-84
2023/10/30 14:13:56;;;;;;;10.85;1.70;;;14.40;92.00;;;;;;6219311;28;20094;-86
2023/10/30 14:16:58;;;;;;;9.95;2.40;;;14.30;89.80;;;;;;6215919;28;20409;-91
2023/10/30 14:20:00;;;;;;;8.38;2.22;;;14.40;92.10;;;;;;6226628;28;20054;-84
2023/10/30 14:23:02;;;;;;;10.82;2.00;;;14.30;92.00;;;;;;6181410;28;20169;-94
2023/10/30 14:26:03;;;;;;;9.95;2.58;;;14.20;92.10;;;;;;6199806;28;20055;-88
2023/10/30 14:29:05;;;;;;;9.70;2.30;;;14.20;92.50;;;;;;6217887;28;20409;-84
2023/10/30 14:32:07;;;;;;;11.80;2.10;;;14.20;92.80;;;;;;6230501;28;20057;-92
2023/10/30 14:35:08;;;;;;;10.32;2.10;;;14.10;92.10;;;;;;6175340;28;20482;-83
2023/10/30 14:38:10;;;;;;;15.38;2.22;;;14.00;92.80;;;;;;6224057;28;20056;-89
2023/10/30 14:41:12;;;;;;;12.60;2.33;;;14.10;93.30;;;;;;6226735;28;20108;-84
2023/10/30 14:44:13;;;;;;;10.20;2.55;;;14.00;92.40;;;;;;6221253;28;20508;-84
2023/10/30 14:47:15;;;;;;;8.52;1.40;;;13.90;92.60;;;;;;6174212;28;20062;-85
2023/10/30 14:50:17;;;;;;;7.53;1.60;;;13.80;91.20;;;;;;6210320;28;20064;-86
2023/10/30 14:53:19;;;;;;;7.40;1.50;;;13.70;89.30;;;;;;6190214;28;20054;-86
2023/10/30 14:56:21;;;;;;;11.02;2.33;;;13.50;91.40;;;;;;6222410;28;20046;-85
2023/10/30 14:59:22;;;;;;;7.85;1.88;;;13.40;91.20;;;;;;6220994;28;20572;-84
2023/10/30 15:02:24;;;;;;;8.35;2.10;;;13.30;91.90;;;;;;6222631;28;20054;-83
2023/10/30 15:05:26;;;;;;;6.85;1.38;;;13.30;90.50;;;;;;6222410;28;20052;-85
2023/10/30 15:08:27;;;;;;;7.85;1.40;;;13.30;85.70;;;;;;6222865;28;20053;-86
2023/10/30 15:11:29;;;;;;;6.75;1.63;;;13.20;87.00;;;;;;6225520;28;20506;-84
2023/10/30 15:14:32;;;;;;;13.02;1.63;;;13.20;91.40;;;;;;6209405;28;20715;-82
2023/10/30 15:17:34;;;;;;;5.88;1.42;;;13.00;90.50;;;;;;6195673;28;20063;-80
2023/10/30 15:20:37;;;;;;;9.75;1.50;;;13.00;86.90;;;;;;6223339;28;20152;-82
2023/10/30 15:23:39;;;;;;;8.13;1.30;;;12.90;86.40;;;;;;6222648;28;20096;-84
2023/10/30 15:26:40;;;;;;;6.90;1.25;;;12.90;89.00;;;;;;6223739;28;20054;-87
2023/10/30 15:29:42;;;;;;;7.25;1.52;;;12.80;91.20;;;;;;6223681;28;20397;-91
2023/10/30 15:32:48;;;;;;;8.25;1.40;;;12.70;90.10;;;;;;6227141;28;20072;-90
2023/10/30 15:35:49;;;;;;;3.53;0.93;;;12.70;91.90;;;;;;6223950;28;20421;-89
2023/10/30 15:38:51;;;;;;;6.78;1.35;;;12.70;92.50;;;;;;6225325;28;20038;-91